Misión y Visión

La misión es proporcionar información fiable a la navegación aérea, contribuyendo a la seguridad, regularidad y eficiencia de la Navegación Aérea Internacional

La visión es contribuir sustancialmente al desarrollo de conocimientos y a la utilización de la meteorología aeronáutica a nivel nacional e internacional, mediante la innovación y la coparticipación con sectores sociales y productivos de la sociedad.

 
  Inicio
  Metar
  Taf
  Wintemp
  SIGMET
  Avisos
  Pronósticos
  Carpeta Meteorologica
  Imágenes Satelitales
  Climatología Aeronáutica
   
  ¿Quienes Somos?
  Contacto
  Eventos



DIRECCIONES PARA INFORMES NACIONALES E INTERNACIONALES
(Metar /Speci - TAF)



http://adds.aviationweather.gov/tafs/index.php

http://www.ogimet.com/metars.phtml



PRONÓSTICOS DE AERÓDROMO

Cuando sea necesario, el encabezamiento abreviado puede incluir un cuarto grupo consistente en tres letras para identificar los boletines demorados (RRA), corregidos(CCA) o enmendados (AAA). Los boletines adicionales demorados, corregidos o enmendados deben identificarse con las letras RRB, RRC, etc.; CCB, CCC,etc.;AAB, AAC,etc.



ESTACIONES DESCRIPCION  
MPTO (M) 011100Z 33005KT 9999 FEW008 SCT018CB BKN080 23/22 Q1009 RETSRA RWY WET NOSIG RMK CB DSNT SW/W/NE =  
MPBO (M) 020100Z 26004KT 9999 SCT018 BKN090 Q1014=  
MPCH (M) 020100Z 00000KT 9999 FEW010 SCT030 OVC080 Q1015=  
MPSA (M)  
MPCE (M)  
MPPN (M)  
MPSM (M) 0111000Z 04003KT 9999 TS SCT015CB BKN080 25/25 Q1009 RMK TS E-SE  
MPJE (M)  
MPPA (M) 020100Z 31006KT 9999 FEW018CB SCT100 23/21 Q1012 RMK CB DSNT W=  
MPMG (M) 020100Z 28005KT 9999 FEW018CB SCT090 26/24 Q1012 TEMPO 8000 TSRA RMK LTNG DSNT W=  
MPDA (M) 020100Z 00000KT(E) 9999 FEW015 OVC090 ///// Q1012=  
MPVR (M)  
MPWN (M)  
MPOA (M)  
MPMF (M)  
MPEJ (M) 011100Z 33005KT 9999 FEW008 SCT018CB BKN080 23/22 Q1009 RETSRA RWY WET NOSIG RMK CB DSNT SW/W/NE =  

 

 

 

CLIMATICAS

MPTO

31-03-2016

PCPN

T° MAX

T° MIN

VIENTO MAX (KT)

HORA

VIENTO PREDOM (KT)

0.0

34.8

20.0

18015KT

1700Z

VRB 05KT

CLIMATICAS

MPMG

31-03-2016

PCPN

T° MAX

T° MIN

VIENTO MAX (KT)

HORA

VIENTO PREDOM (KT)

0.0

34.0

24.2

28011KT

2000Z NNW

 

 
 



























  Noticias AAC
  Directorio
  Contáctenos
  Historia
  Quejas y Sugerencias
  Etica y Transparencia

  Gestión SSP/SMS
  Seguridad Aérea
  Navegación Aérea
  Transporte Aéreo

  Tramites
  Áeronaves de Alquiler

  Meteorología
  I.S.F.P.A
  Notam
  Peligro Aviario
  AVSEC
  UPIA
  Permisos
 




DECLARACIÓN DE PRIVACIDAD